createdAt,value
2023-05-05T03:47:47.765Z,16.20
2023-05-05T03:50:14.847Z,16.20
2023-05-05T03:52:41.868Z,16.10
2023-05-05T03:55:08.959Z,16.20
2023-05-05T03:57:36.738Z,16.20
2023-05-05T04:00:03.882Z,16.30
2023-05-05T04:02:30.899Z,16.20
2023-05-05T04:04:57.875Z,16.20
2023-05-05T04:07:24.879Z,16.30
2023-05-05T04:09:51.846Z,16.10
2023-05-05T04:12:18.804Z,16.10
2023-05-05T04:14:45.716Z,16.10
2023-05-05T04:17:12.689Z,16.10
2023-05-05T04:19:39.687Z,16.10
2023-05-05T04:22:06.656Z,16.10
2023-05-05T04:24:33.604Z,16.10
2023-05-05T04:27:01.122Z,16.20
2023-05-05T04:29:28.082Z,16.20
2023-05-05T04:31:54.961Z,16.30
2023-05-05T04:34:22.321Z,16.20
2023-05-05T04:36:49.254Z,16.20
2023-05-05T04:39:16.293Z,16.20
2023-05-05T04:41:43.384Z,16.20
2023-05-05T04:44:10.461Z,16.20
2023-05-05T04:46:37.457Z,16.20
2023-05-05T04:49:05.781Z,16.20
2023-05-05T04:51:32.834Z,16.20
2023-05-05T04:53:59.799Z,16.20
2023-05-05T04:56:26.788Z,16.20
2023-05-05T04:58:53.699Z,16.20
2023-05-05T05:01:20.648Z,16.20
2023-05-05T05:03:47.635Z,16.20
2023-05-05T05:06:14.601Z,16.20
2023-05-05T05:08:41.505Z,16.30
2023-05-05T05:11:08.915Z,16.30
2023-05-05T05:13:35.827Z,16.40
2023-05-05T05:16:02.809Z,16.40
2023-05-05T05:18:29.837Z,16.40
2023-05-05T05:20:56.768Z,16.40
2023-05-05T05:23:23.774Z,16.40
2023-05-05T05:25:50.835Z,16.40
2023-05-05T05:28:17.866Z,16.40
2023-05-05T05:30:44.766Z,16.50
2023-05-05T05:33:11.703Z,16.50
2023-05-05T05:35:38.620Z,16.50
2023-05-05T05:38:05.609Z,16.50
2023-05-05T05:40:32.520Z,16.60
2023-05-05T05:42:59.405Z,16.60
2023-05-05T05:45:26.323Z,16.60
2023-05-05T05:47:53.269Z,16.60
2023-05-05T05:50:20.628Z,16.60
2023-05-05T05:52:47.613Z,16.60
2023-05-05T05:55:14.523Z,16.60
2023-05-05T05:57:41.449Z,16.60
2023-05-05T06:00:10.139Z,16.60
2023-05-05T06:02:37.277Z,16.70
2023-05-05T06:05:04.472Z,16.80
2023-05-05T06:07:31.445Z,16.80
2023-05-05T06:09:58.385Z,16.80
2023-05-05T06:12:25.902Z,16.80
2023-05-05T06:14:52.786Z,16.80
2023-05-05T06:17:19.721Z,16.90
2023-05-05T06:19:46.637Z,16.90
2023-05-05T06:22:13.512Z,16.90
2023-05-05T06:24:40.397Z,17.00
2023-05-05T06:27:07.339Z,17.00
2023-05-05T06:29:34.321Z,17.00
2023-05-05T06:32:01.359Z,17.10
2023-05-05T06:34:28.290Z,17.10
2023-05-05T06:36:55.254Z,17.10
2023-05-05T06:39:22.235Z,17.20
2023-05-05T06:41:49.155Z,17.30
2023-05-05T06:44:16.188Z,17.30
2023-05-05T06:46:43.612Z,17.40
2023-05-05T06:49:10.660Z,17.40
2023-05-05T06:51:37.558Z,17.50
2023-05-05T06:54:04.470Z,17.60
2023-05-05T06:56:31.644Z,17.60
2023-05-05T06:58:58.826Z,17.80
2023-05-05T07:01:25.842Z,17.80
2023-05-05T07:03:52.850Z,17.90
2023-05-05T07:06:19.782Z,17.90
2023-05-05T07:08:47.130Z,18.00
2023-05-05T07:11:14.510Z,18.10
2023-05-05T07:13:41.406Z,18.20
2023-05-05T07:16:08.380Z,18.50
2023-05-05T07:18:35.405Z,18.30
2023-05-05T07:21:05.783Z,18.30
2023-05-05T07:23:32.896Z,18.40
2023-05-05T07:25:59.889Z,18.60
2023-05-05T07:28:26.766Z,18.50
2023-05-05T07:30:53.687Z,18.60
2023-05-05T07:33:20.640Z,18.60
2023-05-05T07:35:47.620Z,18.70
2023-05-05T07:38:14.879Z,18.80
2023-05-05T07:40:41.772Z,18.80
2023-05-05T07:43:08.736Z,18.90
2023-05-05T07:45:35.821Z,19.00
2023-05-05T07:48:02.825Z,19.00
2023-05-05T07:50:29.935Z,19.10
2023-05-05T07:53:06.134Z,19.30
2023-05-05T07:55:37.411Z,19.20
2023-05-05T07:58:04.310Z,19.30
2023-05-05T08:00:31.320Z,19.30
2023-05-05T08:02:58.289Z,19.40
2023-05-05T08:05:25.926Z,19.40
2023-05-05T08:07:52.835Z,19.40
2023-05-05T08:10:21.834Z,19.50
2023-05-05T08:12:49.055Z,19.50
2023-05-05T08:15:16.157Z,19.60
2023-05-05T08:17:43.921Z,19.60
2023-05-05T08:20:11.070Z,19.60
2023-05-05T08:22:38.122Z,19.60
2023-05-05T08:25:05.540Z,19.70
2023-05-05T08:27:35.202Z,19.80
2023-05-05T08:30:03.155Z,19.80
2023-05-05T08:32:30.131Z,19.90
2023-05-05T08:34:57.081Z,20.00
2023-05-05T08:37:24.062Z,19.90
2023-05-05T08:39:51.051Z,20.10
2023-05-05T08:42:32.923Z,20.00
2023-05-05T08:45:03.827Z,20.10
2023-05-05T08:47:32.170Z,20.10
2023-05-05T08:49:59.304Z,20.10
2023-05-05T08:52:28.688Z,20.20
2023-05-05T08:55:00.808Z,20.30
2023-05-05T08:57:30.427Z,20.30
2023-05-05T08:59:58.818Z,20.30
2023-05-05T09:02:28.495Z,20.40
2023-05-05T09:04:56.044Z,20.40
2023-05-05T09:07:23.073Z,20.50
2023-05-05T09:09:49.996Z,20.50
2023-05-05T09:12:18.345Z,20.50
2023-05-05T09:14:46.106Z,20.60
2023-05-05T09:17:25.736Z,20.70
2023-05-05T09:20:00.614Z,20.70
2023-05-05T09:22:33.569Z,20.80
2023-05-05T09:25:00.812Z,20.80
2023-05-05T09:27:27.893Z,20.80
2023-05-05T09:29:56.310Z,20.90
2023-05-05T09:32:24.414Z,21.00
2023-05-05T09:35:01.288Z,20.90
2023-05-05T09:37:31.396Z,21.10
2023-05-05T09:40:00.474Z,21.10
2023-05-05T09:42:27.607Z,21.10
2023-05-05T09:44:54.792Z,21.20
2023-05-05T09:47:29.588Z,21.20
2023-05-05T09:49:59.985Z,21.30
2023-05-05T09:52:27.286Z,21.40
2023-05-05T09:54:56.159Z,21.40
2023-05-05T09:57:27.271Z,21.50
2023-05-05T09:59:54.819Z,21.50
2023-05-05T10:02:29.450Z,21.60
2023-05-05T10:05:13.066Z,21.60
2023-05-05T10:07:41.276Z,21.60
2023-05-05T10:10:10.254Z,21.70
2023-05-05T10:12:37.784Z,21.70
2023-05-05T10:15:06.454Z,21.80
2023-05-05T10:17:36.530Z,21.80
2023-05-05T10:20:03.993Z,21.80
2023-05-05T10:22:34.524Z,21.90
2023-05-05T10:25:22.537Z,21.90
2023-05-05T10:27:54.603Z,21.90
2023-05-05T10:30:25.783Z,22.00
2023-05-05T10:33:14.136Z,22.00
2023-05-05T10:35:51.596Z,22.10
2023-05-05T10:38:19.676Z,22.10
2023-05-05T10:40:46.794Z,22.20
2023-05-05T10:43:13.871Z,22.20
2023-05-05T10:45:41.505Z,22.20
2023-05-05T10:48:12.735Z,22.20
2023-05-05T10:50:44.757Z,22.20
2023-05-05T10:53:21.226Z,22.30
2023-05-05T10:56:08.585Z,22.30
2023-05-05T10:58:51.063Z,22.30
2023-05-05T11:01:28.758Z,22.40
2023-05-05T11:04:15.782Z,22.40
2023-05-05T11:07:02.634Z,22.50
2023-05-05T11:09:29.795Z,22.50
2023-05-05T11:12:03.727Z,22.50
2023-05-05T11:14:30.728Z,22.50
2023-05-05T11:16:57.669Z,22.60
2023-05-05T11:19:42.626Z,22.60
2023-05-05T11:22:10.160Z,22.60
2023-05-05T11:24:37.920Z,22.60
2023-05-05T11:27:05.325Z,22.70
2023-05-05T11:29:52.140Z,22.80
2023-05-05T11:32:19.848Z,22.80
2023-05-05T11:34:52.659Z,22.90
2023-05-05T11:37:22.342Z,22.90
2023-05-05T11:40:09.732Z,23.00
2023-05-05T11:42:36.951Z,23.00
2023-05-05T11:45:19.152Z,23.00
2023-05-05T11:47:46.787Z,23.10
2023-05-05T11:50:17.940Z,23.20
2023-05-05T11:52:45.274Z,23.30
2023-05-05T11:55:12.271Z,23.30
2023-05-05T11:57:39.412Z,23.40
2023-05-05T12:00:08.058Z,23.40
2023-05-05T12:02:35.464Z,23.50
2023-05-05T12:05:03.406Z,23.50
2023-05-05T12:07:31.303Z,23.50
2023-05-05T12:09:58.687Z,23.60
2023-05-05T12:12:38.420Z,23.60
2023-05-05T12:15:06.536Z,23.60
2023-05-05T12:17:40.721Z,23.60
2023-05-05T12:20:09.321Z,23.70
2023-05-05T12:22:36.670Z,23.70
2023-05-05T12:25:04.931Z,23.70
2023-05-05T12:27:31.853Z,23.70
2023-05-05T12:30:11.075Z,23.80
2023-05-05T12:32:38.209Z,23.80
2023-05-05T12:35:06.539Z,23.80
2023-05-05T12:37:33.564Z,23.80
2023-05-05T12:40:00.542Z,23.90
2023-05-05T12:42:27.476Z,23.90
2023-05-05T12:44:54.437Z,23.90
2023-05-05T12:47:31.652Z,23.90
2023-05-05T12:50:00.191Z,23.90
2023-05-05T12:52:45.598Z,24.00
2023-05-05T12:55:13.462Z,24.00
2023-05-05T12:57:58.535Z,24.00
2023-05-05T13:00:25.773Z,24.00
2023-05-05T13:02:53.334Z,24.10
2023-05-05T13:05:32.961Z,24.10
2023-05-05T13:07:59.972Z,24.10
2023-05-05T13:10:28.025Z,24.00
2023-05-05T13:12:56.460Z,24.10
2023-05-05T13:15:27.316Z,24.10
2023-05-05T13:18:03.351Z,24.20
2023-05-05T13:20:30.508Z,24.20
2023-05-05T13:22:57.583Z,24.20
2023-05-05T13:25:24.605Z,24.30
2023-05-05T13:27:51.548Z,24.30
2023-05-05T13:30:18.511Z,24.30
2023-05-05T13:32:45.526Z,24.40
2023-05-05T13:35:15.413Z,24.40
2023-05-05T13:37:44.277Z,24.40
2023-05-05T13:40:13.178Z,24.40
2023-05-05T13:42:40.095Z,24.40
2023-05-05T13:45:07.468Z,24.40
2023-05-05T13:47:34.535Z,24.40
2023-05-05T13:50:01.856Z,24.50
2023-05-05T13:52:29.877Z,24.50
2023-05-05T13:54:58.572Z,24.50
2023-05-05T13:57:25.806Z,24.50
2023-05-05T13:59:52.724Z,24.50
2023-05-05T14:02:19.636Z,24.50
2023-05-05T14:04:47.124Z,24.50
2023-05-05T14:07:14.094Z,24.50
2023-05-05T14:09:41.066Z,24.50
2023-05-05T14:12:08.106Z,24.50
2023-05-05T14:14:35.330Z,24.50
2023-05-05T14:17:02.471Z,24.50
2023-05-05T14:19:29.435Z,24.50
2023-05-05T14:21:56.357Z,24.50
2023-05-05T14:24:23.301Z,24.50
2023-05-05T14:26:50.273Z,24.50
2023-05-05T14:29:17.321Z,24.50
2023-05-05T14:31:44.307Z,24.50
2023-05-05T14:34:11.223Z,24.50
2023-05-05T14:36:38.119Z,24.50
2023-05-05T14:39:05.124Z,24.50
2023-05-05T14:41:32.163Z,24.50
2023-05-05T14:43:59.201Z,24.50
2023-05-05T14:46:27.322Z,24.50
2023-05-05T14:48:54.354Z,24.50
2023-05-05T14:51:21.300Z,24.50
2023-05-05T14:53:48.263Z,24.50
2023-05-05T14:56:15.290Z,24.50
2023-05-05T14:58:42.321Z,24.40
2023-05-05T15:01:09.299Z,24.40
2023-05-05T15:03:36.380Z,24.30
2023-05-05T15:06:03.927Z,24.30
2023-05-05T15:08:30.895Z,24.30
2023-05-05T15:10:57.795Z,24.30
2023-05-05T15:13:24.769Z,24.20
2023-05-05T15:15:51.882Z,24.20
2023-05-05T15:18:19.053Z,24.20
2023-05-05T15:20:46.232Z,24.20
2023-05-05T15:23:13.148Z,24.20
2023-05-05T15:25:40.166Z,24.10
2023-05-05T15:28:07.192Z,24.00
2023-05-05T15:30:34.251Z,23.80
2023-05-05T15:33:01.368Z,23.70
2023-05-05T15:35:28.315Z,23.60
2023-05-05T15:37:55.251Z,23.30
2023-05-05T15:40:22.529Z,23.00
2023-05-05T15:42:52.484Z,22.70
2023-05-05T15:45:19.467Z,22.20
2023-05-05T15:47:46.672Z,21.90
2023-05-05T15:50:14.156Z,21.50
2023-05-05T15:52:41.066Z,20.90
2023-05-05T15:55:08.713Z,20.40
2023-05-05T15:57:35.891Z,19.90
2023-05-05T16:00:02.940Z,19.60
2023-05-05T16:02:29.961Z,19.30
2023-05-05T16:04:57.078Z,19.20
2023-05-05T16:07:24.028Z,19.10
2023-05-05T16:09:51.130Z,19.10
2023-05-05T16:12:20.741Z,19.00
2023-05-05T16:14:47.859Z,19.10
2023-05-05T16:17:14.757Z,19.20
2023-05-05T16:19:41.655Z,19.20
2023-05-05T16:22:08.623Z,19.20
2023-05-05T16:24:35.815Z,19.10
2023-05-05T16:27:03.167Z,19.20
2023-05-05T16:29:30.151Z,18.90
2023-05-05T16:31:57.143Z,18.90
2023-05-05T16:34:24.088Z,18.90
2023-05-05T16:36:51.011Z,19.00
2023-05-05T16:39:17.950Z,19.10
2023-05-05T16:41:44.834Z,19.20
2023-05-05T16:44:11.803Z,19.30
2023-05-05T16:46:39.961Z,19.10
2023-05-05T16:49:06.988Z,19.10
2023-05-05T16:51:33.939Z,19.20
2023-05-05T16:54:00.850Z,19.20
2023-05-05T16:56:27.798Z,19.10
2023-05-05T16:58:54.739Z,19.10
2023-05-05T17:01:21.732Z,19.20
2023-05-05T17:03:48.668Z,19.30
2023-05-05T17:06:15.647Z,19.30
2023-05-05T17:08:42.636Z,19.40
2023-05-05T17:11:11.662Z,19.40
2023-05-05T17:13:38.912Z,19.40
2023-05-05T17:16:06.401Z,19.40
2023-05-05T17:18:34.484Z,19.30
2023-05-05T17:21:01.447Z,19.40
2023-05-05T17:23:28.403Z,19.20
2023-05-05T17:25:55.375Z,19.10
2023-05-05T17:28:22.418Z,19.10
2023-05-05T17:30:49.388Z,19.10
2023-05-05T17:33:20.726Z,19.20
2023-05-05T17:35:48.034Z,19.30
2023-05-05T17:38:15.380Z,19.40
2023-05-05T17:40:42.405Z,19.50
2023-05-05T17:43:09.310Z,19.50
2023-05-05T17:45:36.254Z,19.60
2023-05-05T17:48:03.241Z,19.60
2023-05-05T17:50:30.262Z,19.60
2023-05-05T17:52:57.169Z,19.70
2023-05-05T17:55:24.208Z,19.70
2023-05-05T17:57:51.167Z,19.70
2023-05-05T18:00:18.300Z,19.80
2023-05-05T18:02:45.872Z,19.80
2023-05-05T18:05:13.736Z,19.80
2023-05-05T18:07:40.656Z,19.80
2023-05-05T18:10:08.339Z,19.90
2023-05-05T18:12:35.386Z,19.90
2023-05-05T18:15:03.017Z,19.90
2023-05-05T18:17:29.925Z,20.10
2023-05-05T18:19:56.837Z,19.90
2023-05-05T18:22:23.757Z,19.90
2023-05-05T18:24:50.806Z,19.80
2023-05-05T18:27:17.775Z,19.80
2023-05-05T18:29:44.681Z,19.80
2023-05-05T18:32:12.073Z,19.80
2023-05-05T18:34:39.023Z,19.70
2023-05-05T18:37:06.072Z,19.70
2023-05-05T18:39:33.030Z,19.70
2023-05-05T18:42:00.042Z,19.60
2023-05-05T18:44:27.278Z,19.60
2023-05-05T18:46:54.255Z,19.60
2023-05-05T18:49:22.003Z,19.60
2023-05-05T18:51:48.952Z,19.60
2023-05-05T18:54:15.888Z,19.60
2023-05-05T18:56:42.848Z,19.60
2023-05-05T18:59:09.755Z,19.60
2023-05-05T19:01:36.702Z,19.60
2023-05-05T19:04:05.373Z,19.60
2023-05-05T19:06:33.852Z,19.50
2023-05-05T19:09:00.797Z,19.70
2023-05-05T19:11:27.689Z,19.70
2023-05-05T19:13:54.940Z,19.50
2023-05-05T19:16:21.918Z,19.50
2023-05-05T19:18:48.818Z,19.40
2023-05-05T19:21:15.809Z,19.30
2023-05-05T19:23:42.821Z,19.30
2023-05-05T19:26:11.457Z,19.30
2023-05-05T19:28:38.386Z,19.30
2023-05-05T19:31:05.373Z,19.30
2023-05-05T19:33:32.375Z,19.20
2023-05-05T19:35:59.277Z,19.20
2023-05-05T19:38:26.230Z,19.10
2023-05-05T19:40:54.064Z,19.10
2023-05-05T19:43:21.007Z,19.20
2023-05-05T19:45:47.940Z,19.20
2023-05-05T19:48:15.685Z,19.20
2023-05-05T19:50:42.655Z,19.20
2023-05-05T19:53:09.595Z,19.20
2023-05-05T19:55:37.155Z,19.40
2023-05-05T19:58:04.046Z,19.20
2023-05-05T20:00:31.337Z,19.20
2023-05-05T20:02:58.334Z,19.20
2023-05-05T20:05:26.254Z,19.20
2023-05-05T20:07:53.287Z,19.10
2023-05-05T20:10:20.203Z,19.10
2023-05-05T20:12:50.219Z,19.10
2023-05-05T20:15:19.020Z,19.20
2023-05-05T20:17:46.915Z,19.00
2023-05-05T20:20:18.496Z,19.00
2023-05-05T20:22:45.804Z,19.00
2023-05-05T20:25:13.002Z,19.00
2023-05-05T20:27:40.039Z,19.00
2023-05-05T20:30:09.008Z,18.90
2023-05-05T20:32:36.396Z,18.90
2023-05-05T20:35:05.501Z,18.80
2023-05-05T20:37:32.564Z,18.80
2023-05-05T20:39:59.613Z,18.80
2023-05-05T20:42:27.618Z,18.80
2023-05-05T20:44:54.627Z,18.80
2023-05-05T20:47:21.585Z,18.70
2023-05-05T20:49:48.550Z,18.70
2023-05-05T20:52:15.589Z,18.60
2023-05-05T20:54:42.540Z,18.60
2023-05-05T20:57:09.467Z,18.60
2023-05-05T20:59:37.478Z,18.50
2023-05-05T21:02:04.629Z,18.50
2023-05-05T21:04:31.695Z,18.50
2023-05-05T21:06:58.598Z,18.50
2023-05-05T21:09:25.952Z,18.40
2023-05-05T21:11:52.871Z,18.40
2023-05-05T21:14:19.933Z,18.40
2023-05-05T21:16:48.123Z,18.30
2023-05-05T21:19:15.124Z,18.20
2023-05-05T21:21:42.150Z,18.20
2023-05-05T21:24:09.024Z,18.30
2023-05-05T21:26:36.069Z,18.20
2023-05-05T21:29:03.055Z,18.20
2023-05-05T21:31:30.026Z,18.20
2023-05-05T21:33:56.968Z,18.10
2023-05-05T21:36:24.656Z,18.10
2023-05-05T21:38:51.669Z,18.10
2023-05-05T21:41:18.562Z,18.20
2023-05-05T21:43:45.579Z,18.00
2023-05-05T21:46:12.826Z,18.00
2023-05-05T21:48:41.367Z,18.10
2023-05-05T21:51:08.420Z,18.10
2023-05-05T21:53:35.846Z,18.10
2023-05-05T21:56:02.782Z,18.10
2023-05-05T21:58:29.750Z,18.10
2023-05-05T22:00:56.713Z,18.00
2023-05-05T22:03:23.722Z,18.00
2023-05-05T22:05:50.926Z,18.00
2023-05-05T22:08:18.720Z,18.00
2023-05-05T22:10:46.113Z,18.00
2023-05-05T22:13:13.937Z,18.00
2023-05-05T22:15:46.597Z,18.00
2023-05-05T22:18:14.989Z,18.00
2023-05-05T22:20:42.236Z,17.90
2023-05-05T22:23:09.276Z,17.90
2023-05-05T22:25:36.263Z,17.90
2023-05-05T22:28:03.332Z,17.90
2023-05-05T22:30:30.600Z,17.90
2023-05-05T22:32:57.566Z,17.90
2023-05-05T22:35:24.542Z,17.80
2023-05-05T22:37:51.740Z,17.80
2023-05-05T22:40:18.686Z,17.80
2023-05-05T22:42:45.627Z,17.80
2023-05-05T22:45:12.950Z,17.80
2023-05-05T22:47:39.961Z,17.80
2023-05-05T22:50:07.938Z,17.80
2023-05-05T22:52:34.906Z,17.80
2023-05-05T22:55:02.075Z,17.80
2023-05-05T22:57:29.091Z,17.80
2023-05-05T22:59:56.095Z,17.70
2023-05-05T23:02:23.098Z,17.70
2023-05-05T23:04:51.037Z,17.70
2023-05-05T23:07:18.372Z,17.70
2023-05-05T23:09:46.196Z,17.70
2023-05-05T23:12:13.216Z,17.70
2023-05-05T23:14:40.382Z,17.60
2023-05-05T23:17:07.367Z,17.60
2023-05-05T23:19:34.690Z,17.60
2023-05-05T23:22:02.204Z,17.50
2023-05-05T23:24:29.312Z,17.50
2023-05-05T23:26:58.577Z,17.50
2023-05-05T23:29:25.644Z,17.60
